createdAt,value
2018-01-20T00:00:49.413Z,6.50
2018-01-20T00:02:25.730Z,6.00
2018-01-20T00:04:02.620Z,5.00
2018-01-20T00:05:39.107Z,5.50
2018-01-20T00:07:15.878Z,5.00
2018-01-20T00:08:52.255Z,4.75
2018-01-20T00:12:34.302Z,5.00
2018-01-20T00:14:10.782Z,4.75
2018-01-20T00:15:47.490Z,3.00
2018-01-20T00:17:24.020Z,5.00
2018-01-20T00:19:00.332Z,4.25
2018-01-20T00:20:36.653Z,4.50
2018-01-20T00:22:17.942Z,6.50
2018-01-20T00:23:54.722Z,6.00
2018-01-20T00:25:31.067Z,4.75
2018-01-20T00:27:07.579Z,4.25
2018-01-20T00:28:44.283Z,4.25
2018-01-20T00:30:22.066Z,4.75
2018-01-20T00:32:01.707Z,4.50
2018-01-20T00:33:38.723Z,7.25
2018-01-20T00:35:15.423Z,7.00
2018-01-20T00:36:51.725Z,4.00
2018-01-20T00:38:28.855Z,4.00
2018-01-20T00:40:06.223Z,4.25
2018-01-20T00:41:43.475Z,6.50
2018-01-20T00:43:19.787Z,5.00
2018-01-20T00:44:56.109Z,4.75
2018-01-20T00:46:32.410Z,3.75
2018-01-20T00:48:10.246Z,5.00
2018-01-20T00:49:47.258Z,4.25
2018-01-20T00:51:23.602Z,5.00
2018-01-20T00:53:00.742Z,4.25
2018-01-20T00:54:37.839Z,5.00
2018-01-20T00:56:14.782Z,2.00
2018-01-20T00:57:51.114Z,4.50
2018-01-20T00:59:27.753Z,6.00
2018-01-20T01:01:04.871Z,4.25
2018-01-20T01:02:41.202Z,6.50
2018-01-20T01:04:21.072Z,7.00
2018-01-20T01:05:57.408Z,4.75
2018-01-20T01:07:34.774Z,4.25
2018-01-20T01:09:11.640Z,4.75
2018-01-20T01:10:47.971Z,5.50
2018-01-20T01:12:24.358Z,4.50
2018-01-20T01:14:01.194Z,6.50
2018-01-20T01:15:37.848Z,4.50
2018-01-20T01:18:48.113Z,5.00
2018-01-20T01:20:25.490Z,5.00
2018-01-20T01:22:02.040Z,5.00
2018-01-20T01:23:39.201Z,4.00
2018-01-20T01:25:15.552Z,7.00
2018-01-20T01:26:52.401Z,4.75
2018-01-20T01:28:28.711Z,7.00
2018-01-20T01:30:06.445Z,6.00
2018-01-20T01:31:44.090Z,7.00
2018-01-20T01:33:20.804Z,6.50
2018-01-20T01:34:57.079Z,4.25
2018-01-20T01:36:34.185Z,4.50
2018-01-20T01:38:10.534Z,8.75
2018-01-20T01:39:47.294Z,5.00
2018-01-20T01:41:24.267Z,7.00
2018-01-20T01:43:01.407Z,6.75
2018-01-20T01:44:37.762Z,6.75
2018-01-20T01:46:14.503Z,6.75
2018-01-20T01:47:50.819Z,8.75
2018-01-20T01:49:27.982Z,4.50
2018-01-20T01:51:05.389Z,6.00
2018-01-20T01:52:41.737Z,6.00
2018-01-20T01:54:18.125Z,6.00
2018-01-20T01:55:54.546Z,7.25
2018-01-20T01:57:30.804Z,6.75
2018-01-20T01:59:07.648Z,6.00
2018-01-20T02:00:44.799Z,11.50
2018-01-20T02:02:21.118Z,7.00
2018-01-20T02:03:57.456Z,9.00
2018-01-20T02:05:34.137Z,6.00
2018-01-20T02:07:10.451Z,8.00
2018-01-20T02:08:47.233Z,6.00
2018-01-20T02:10:23.625Z,6.00
2018-01-20T02:12:00.345Z,4.75
2018-01-20T02:13:36.587Z,7.00
2018-01-20T02:15:12.968Z,5.00
2018-01-20T02:16:50.510Z,4.00
2018-01-20T02:18:27.079Z,6.75
2018-01-20T02:20:03.521Z,7.00
2018-01-20T02:21:40.571Z,8.50
2018-01-20T02:23:17.756Z,4.25
2018-01-20T02:24:54.386Z,5.75
2018-01-20T02:26:30.668Z,8.00
2018-01-20T02:28:06.893Z,7.00
2018-01-20T02:29:43.212Z,6.00
2018-01-20T02:31:20.302Z,6.00
2018-01-20T02:32:57.336Z,6.00
2018-01-20T02:34:33.661Z,6.00
2018-01-20T02:36:10.656Z,5.00
2018-01-20T02:37:47.332Z,5.75
2018-01-20T02:39:23.642Z,6.00
2018-01-20T02:41:00.654Z,6.00
2018-01-20T02:42:36.898Z,5.25
2018-01-20T02:44:14.215Z,6.00
2018-01-20T02:45:50.690Z,5.00
2018-01-20T02:47:27.788Z,5.75
2018-01-20T02:49:04.149Z,5.00
2018-01-20T02:50:40.774Z,6.00
2018-01-20T02:52:17.517Z,5.75
2018-01-20T02:53:53.942Z,6.00
2018-01-20T02:55:30.255Z,5.00
2018-01-20T02:57:07.027Z,4.50
2018-01-20T02:58:43.323Z,5.25
2018-01-20T03:00:22.559Z,6.00
2018-01-20T03:02:01.853Z,5.25
2018-01-20T03:03:38.522Z,4.75
2018-01-20T03:05:14.830Z,4.25
2018-01-20T03:06:51.090Z,4.50
2018-01-20T03:08:27.346Z,5.25
2018-01-20T03:10:04.099Z,4.00
2018-01-20T03:11:40.550Z,5.25
2018-01-20T03:13:17.371Z,5.00
2018-01-20T03:14:53.707Z,5.00
2018-01-20T03:16:30.437Z,4.50
2018-01-20T03:18:06.642Z,5.25
2018-01-20T03:19:43.605Z,4.00
2018-01-20T03:21:19.820Z,4.75
2018-01-20T03:22:56.777Z,5.00
2018-01-20T03:24:33.018Z,5.00
2018-01-20T03:26:09.303Z,5.00
2018-01-20T03:27:45.538Z,3.50
2018-01-20T03:29:22.297Z,4.25
2018-01-20T03:30:58.633Z,4.00
2018-01-20T03:32:34.881Z,4.50
2018-01-20T03:34:11.821Z,4.00
2018-01-20T03:35:49.358Z,4.25
2018-01-20T03:37:25.634Z,4.25
2018-01-20T03:39:01.886Z,3.50
2018-01-20T03:40:38.172Z,4.50
2018-01-20T03:42:15.619Z,4.00
2018-01-20T03:43:51.915Z,5.00
2018-01-20T03:45:29.146Z,5.00
2018-01-20T03:47:05.384Z,5.00
2018-01-20T03:48:42.560Z,5.00
2018-01-20T03:50:18.804Z,4.50
2018-01-20T03:51:55.023Z,5.50
2018-01-20T03:53:31.308Z,4.75
2018-01-20T03:55:08.101Z,5.00
2018-01-20T03:56:44.474Z,5.00
2018-01-20T03:58:21.547Z,4.75
2018-01-20T03:59:58.539Z,5.50
2018-01-20T04:01:35.551Z,5.00
2018-01-20T04:03:12.642Z,5.25
2018-01-20T04:04:48.975Z,5.00
2018-01-20T04:06:26.013Z,4.75
2018-01-20T04:08:02.834Z,4.00
2018-01-20T04:09:39.108Z,4.50
2018-01-20T04:11:15.351Z,4.25
2018-01-20T04:12:52.409Z,5.00
2018-01-20T04:14:28.991Z,3.00
2018-01-20T04:16:05.762Z,4.50
2018-01-20T04:17:42.720Z,5.00
2018-01-20T04:19:18.931Z,5.00
2018-01-20T04:20:55.587Z,5.00
2018-01-20T04:22:31.883Z,6.00
2018-01-20T04:24:08.183Z,5.50
2018-01-20T04:25:44.507Z,4.25
2018-01-20T04:27:21.203Z,6.00
2018-01-20T04:28:57.514Z,6.00
2018-01-20T04:30:34.111Z,5.75
2018-01-20T04:32:11.526Z,6.00
2018-01-20T04:33:49.036Z,4.00
2018-01-20T04:35:25.396Z,5.00
2018-01-20T04:37:01.903Z,7.50
2018-01-20T04:38:38.146Z,5.00
2018-01-20T04:40:14.825Z,4.00
2018-01-20T04:41:51.171Z,5.50
2018-01-20T04:43:27.781Z,4.50
2018-01-20T04:45:04.509Z,5.00
2018-01-20T04:46:41.605Z,5.00
2018-01-20T04:48:17.839Z,5.25
2018-01-20T04:49:54.162Z,5.25
2018-01-20T04:51:30.386Z,5.25
2018-01-20T04:53:07.075Z,5.75
2018-01-20T04:54:43.307Z,4.50
2018-01-20T04:56:19.493Z,4.75
2018-01-20T04:57:55.708Z,4.25
2018-01-20T04:59:31.939Z,5.50
2018-01-20T05:01:09.010Z,5.00
2018-01-20T05:02:45.224Z,6.50
2018-01-20T05:04:21.462Z,5.00
2018-01-20T05:05:58.049Z,4.00
2018-01-20T05:07:34.286Z,5.25
2018-01-20T05:09:10.470Z,5.50
2018-01-20T05:10:47.253Z,5.00
2018-01-20T05:12:23.484Z,6.00
2018-01-20T05:13:59.810Z,5.00
2018-01-20T05:15:36.268Z,5.00
2018-01-20T05:17:13.055Z,6.00
2018-01-20T05:18:49.292Z,5.75
2018-01-20T05:20:26.725Z,6.00
2018-01-20T05:22:02.973Z,6.00
2018-01-20T05:23:39.538Z,6.50
2018-01-20T05:25:15.911Z,5.75
2018-01-20T05:26:52.209Z,5.50
2018-01-20T05:28:28.506Z,5.00
2018-01-20T05:30:05.194Z,8.00
2018-01-20T05:31:44.250Z,7.00
2018-01-20T05:33:20.589Z,6.00
2018-01-20T05:34:56.898Z,5.00
2018-01-20T05:36:33.648Z,5.50
2018-01-20T05:38:10.040Z,8.00
2018-01-20T05:39:47.077Z,4.25
2018-01-20T05:41:23.643Z,5.50
2018-01-20T05:43:00.362Z,5.00
2018-01-20T05:44:40.517Z,5.25
2018-01-20T05:46:17.830Z,5.00
2018-01-20T05:47:54.125Z,5.25
2018-01-20T05:49:30.504Z,5.50
2018-01-20T05:51:07.511Z,5.25
2018-01-20T05:52:43.804Z,4.00
2018-01-20T05:54:20.050Z,4.75
2018-01-20T05:55:56.762Z,5.25
2018-01-20T05:57:33.113Z,5.75
2018-01-20T05:59:09.521Z,4.00
2018-01-20T06:00:46.826Z,4.50
2018-01-20T06:02:23.422Z,5.25
2018-01-20T06:03:59.719Z,6.00
2018-01-20T06:05:36.037Z,5.00
2018-01-20T06:07:12.330Z,5.00
2018-01-20T06:08:49.187Z,5.75
2018-01-20T06:10:25.585Z,4.50
2018-01-20T06:12:02.848Z,4.00
2018-01-20T06:13:39.132Z,4.50
2018-01-20T06:15:17.982Z,5.00
2018-01-20T06:16:54.546Z,4.00
2018-01-20T06:18:31.753Z,4.00
2018-01-20T06:20:09.674Z,7.00
2018-01-20T06:21:46.486Z,6.00
2018-01-20T06:23:22.748Z,5.00
2018-01-20T06:24:59.848Z,4.25
2018-01-20T06:26:36.089Z,5.00
2018-01-20T06:28:14.045Z,5.25
2018-01-20T06:29:50.382Z,4.50
2018-01-20T06:31:27.192Z,9.75
2018-01-20T06:33:03.456Z,8.50
2018-01-20T06:34:41.532Z,8.75
2018-01-20T06:36:18.175Z,8.00
2018-01-20T06:37:54.567Z,6.00
2018-01-20T06:39:30.884Z,5.75
2018-01-20T06:41:08.091Z,6.75
2018-01-20T06:42:44.856Z,8.00
2018-01-20T06:44:21.453Z,6.50
2018-01-20T06:46:02.147Z,6.00
2018-01-20T06:47:39.618Z,5.75
2018-01-20T06:49:15.872Z,8.50
2018-01-20T06:50:52.331Z,8.75
2018-01-20T06:52:28.626Z,9.50
2018-01-20T06:56:49.594Z,11.25
2018-01-20T06:58:26.508Z,10.50
2018-01-20T07:00:04.764Z,10.00
2018-01-20T07:01:41.491Z,18.75
2018-01-20T07:03:17.809Z,13.75
2018-01-20T07:04:54.031Z,15.25
2018-01-20T07:06:32.913Z,9.00
2018-01-20T07:08:09.506Z,9.50
2018-01-20T07:09:46.256Z,6.75
2018-01-20T07:11:22.740Z,5.25
2018-01-20T07:13:00.943Z,9.00
2018-01-20T07:14:38.112Z,5.75
2018-01-20T07:16:15.410Z,6.50
2018-01-20T07:17:51.725Z,9.00
2018-01-20T07:19:30.299Z,6.00
2018-01-20T07:21:08.771Z,8.75
2018-01-20T07:22:45.134Z,12.00
2018-01-20T07:26:08.574Z,13.00
2018-01-20T07:27:45.001Z,11.25
2018-01-20T07:29:21.752Z,9.50
2018-01-20T07:30:58.865Z,10.00
2018-01-20T07:32:35.958Z,10.00
2018-01-20T07:34:13.342Z,8.00
2018-01-20T07:35:49.893Z,9.00
2018-01-20T07:37:27.166Z,5.50
2018-01-20T07:39:04.081Z,5.00
2018-01-20T07:40:40.485Z,6.00
2018-01-20T07:43:53.857Z,5.25
2018-01-20T07:45:30.271Z,6.00
2018-01-20T07:47:07.075Z,8.00
2018-01-20T07:48:43.749Z,7.00
2018-01-20T07:50:20.481Z,10.50
2018-01-20T07:51:57.153Z,9.00
2018-01-20T07:53:33.539Z,12.25
2018-01-20T07:55:10.265Z,11.75
2018-01-20T07:56:47.650Z,6.00
2018-01-20T07:58:24.065Z,6.50
2018-01-20T08:00:00.459Z,6.00
2018-01-20T08:01:37.514Z,7.75
2018-01-20T08:03:13.923Z,5.75
2018-01-20T08:04:50.275Z,5.50
2018-01-20T08:06:27.307Z,5.75
2018-01-20T08:08:04.081Z,4.50
2018-01-20T08:09:40.420Z,5.25
2018-01-20T08:11:16.574Z,5.75
2018-01-20T08:12:52.975Z,6.00
2018-01-20T08:14:29.632Z,7.50
2018-01-20T08:16:06.007Z,6.00
2018-01-20T08:17:42.323Z,5.00
2018-01-20T08:19:18.592Z,4.00
2018-01-20T08:20:55.446Z,4.25
2018-01-20T08:22:31.754Z,4.25
2018-01-20T08:24:07.999Z,4.25
2018-01-20T08:25:44.236Z,4.75
2018-01-20T08:27:20.917Z,4.25
2018-01-20T08:28:57.303Z,6.00
2018-01-20T08:30:33.822Z,4.25
2018-01-20T08:32:10.120Z,4.00
2018-01-20T08:33:46.851Z,4.00
2018-01-20T08:35:23.270Z,5.00
2018-01-20T08:36:59.571Z,3.50
2018-01-20T08:38:36.008Z,4.00
2018-01-20T08:40:13.608Z,5.00
2018-01-20T08:41:49.883Z,4.50
2018-01-20T08:43:26.453Z,5.25
2018-01-20T08:45:02.925Z,4.25
2018-01-20T08:46:40.060Z,4.00
2018-01-20T08:48:16.715Z,2.50
2018-01-20T08:49:54.267Z,4.75
2018-01-20T08:51:33.988Z,5.00
2018-01-20T08:53:10.395Z,6.00
2018-01-20T08:54:47.810Z,6.00
2018-01-20T08:56:24.266Z,6.00
2018-01-20T08:58:00.873Z,5.75
2018-01-20T08:59:37.734Z,7.50
2018-01-20T09:01:14.622Z,8.00
2018-01-20T09:02:51.014Z,9.00
2018-01-20T09:04:27.267Z,7.00
2018-01-20T09:06:04.075Z,5.75
2018-01-20T09:07:41.089Z,8.75
2018-01-20T09:09:17.507Z,9.00
2018-01-20T09:10:53.817Z,11.75
2018-01-20T09:12:30.696Z,8.50
2018-01-20T09:14:07.856Z,11.00
2018-01-20T09:15:44.393Z,10.25
2018-01-20T09:17:20.952Z,5.00
2018-01-20T09:18:57.725Z,8.00
2018-01-20T09:20:34.018Z,6.75
2018-01-20T09:22:10.315Z,6.25
2018-01-20T09:23:46.694Z,6.75
2018-01-20T09:25:23.465Z,11.50
2018-01-20T09:26:59.898Z,9.00
2018-01-20T09:28:36.236Z,7.00
2018-01-20T09:30:13.261Z,8.00
2018-01-20T09:31:53.363Z,7.00
2018-01-20T09:33:30.427Z,5.75
2018-01-20T09:35:08.181Z,2.00
2018-01-20T09:36:44.430Z,2.00
2018-01-20T09:38:20.714Z,4.00
2018-01-20T09:39:57.190Z,3.50
2018-01-20T09:41:33.827Z,0.75
2018-01-20T09:43:10.165Z,2.75
2018-01-20T09:44:47.362Z,1.00
2018-01-20T09:46:23.933Z,2.50
2018-01-20T09:48:00.378Z,3.75
2018-01-20T09:49:36.861Z,3.25
2018-01-20T09:51:13.756Z,3.25
2018-01-20T09:52:53.334Z,5.00
2018-01-20T09:56:12.372Z,2.75
2018-01-20T09:57:50.061Z,4.00
2018-01-20T09:59:26.629Z,6.25
2018-01-20T10:01:03.635Z,5.25
2018-01-20T10:02:42.469Z,7.50
2018-01-20T10:04:24.736Z,6.50
2018-01-20T10:06:02.029Z,8.50
2018-01-20T10:07:39.208Z,8.00
2018-01-20T10:09:18.820Z,8.50
2018-01-20T10:10:56.731Z,8.00
2018-01-20T10:12:38.344Z,5.50
2018-01-20T10:14:21.517Z,6.50
2018-01-20T10:16:04.752Z,7.00
2018-01-20T10:17:43.415Z,4.25
2018-01-20T10:19:21.585Z,7.75
2018-01-20T10:20:58.171Z,5.00
2018-01-20T10:22:35.104Z,2.50
2018-01-20T10:24:19.233Z,3.00
2018-01-20T10:25:59.407Z,3.25
2018-01-20T10:27:38.419Z,2.00
2018-01-20T10:29:19.303Z,4.00
2018-01-20T10:30:59.346Z,3.50
2018-01-20T10:32:36.093Z,5.75
2018-01-20T10:34:19.815Z,7.25
2018-01-20T10:35:57.189Z,5.00
2018-01-20T10:37:33.765Z,4.00
2018-01-20T10:39:10.293Z,5.00
2018-01-20T10:40:46.815Z,2.00
2018-01-20T10:42:23.644Z,8.00
2018-01-20T10:44:00.436Z,8.00
2018-01-20T10:45:37.838Z,8.00
2018-01-20T10:47:14.526Z,4.50
2018-01-20T10:48:52.119Z,6.75
2018-01-20T10:50:28.645Z,4.25
2018-01-20T10:52:04.989Z,8.00
2018-01-20T10:53:41.375Z,6.00
2018-01-20T10:55:18.009Z,5.75
2018-01-20T10:56:54.853Z,5.75
2018-01-20T10:58:31.287Z,6.50
2018-01-20T11:00:08.914Z,7.50
2018-01-20T11:01:46.058Z,5.75
2018-01-20T11:03:22.496Z,7.00
2018-01-20T11:05:00.336Z,6.00
2018-01-20T11:06:36.794Z,8.00
2018-01-20T11:08:14.800Z,9.00
2018-01-20T11:09:51.292Z,8.75
2018-01-20T11:11:27.813Z,8.00
2018-01-20T11:13:05.427Z,10.50
2018-01-20T11:14:43.508Z,9.00
2018-01-20T11:16:20.342Z,8.25
2018-01-20T11:17:57.914Z,13.25
2018-01-20T11:19:34.852Z,9.50
2018-01-20T11:21:11.784Z,9.00
2018-01-20T11:22:49.120Z,10.00
2018-01-20T11:24:27.394Z,9.75
2018-01-20T11:26:04.119Z,9.00
2018-01-20T11:27:40.871Z,9.75
2018-01-20T11:29:18.678Z,12.75
2018-01-20T11:30:55.418Z,9.25
2018-01-20T11:32:31.915Z,6.50
2018-01-20T11:34:10.244Z,9.00
2018-01-20T11:35:46.836Z,9.00
2018-01-20T11:37:23.369Z,8.00
2018-01-20T11:38:59.831Z,10.00
2018-01-20T11:40:37.876Z,6.00
2018-01-20T11:42:14.325Z,8.25
2018-01-20T11:43:50.835Z,5.50
2018-01-20T11:45:29.363Z,6.75
2018-01-20T11:47:06.191Z,6.75
2018-01-20T11:48:42.894Z,6.75
2018-01-20T11:50:20.364Z,8.00
2018-01-20T11:51:57.064Z,5.50
2018-01-20T11:53:34.917Z,5.75
2018-01-20T11:55:12.220Z,7.00
2018-01-20T11:56:50.546Z,5.00
2018-01-20T11:58:29.086Z,13.00
2018-01-20T12:00:07.103Z,7.25
2018-01-20T12:01:44.376Z,7.00
2018-01-20T12:03:22.396Z,8.25
2018-01-20T12:04:59.590Z,8.00
2018-01-20T12:06:38.283Z,9.00
2018-01-20T12:08:16.716Z,5.00
2018-01-20T12:09:53.468Z,8.00
2018-01-20T12:17:54.687Z,6.25
2018-01-20T12:19:32.851Z,5.75
2018-01-20T12:21:10.969Z,5.00
2018-01-20T12:22:49.761Z,8.00
2018-01-20T12:24:28.539Z,8.25
2018-01-20T12:26:08.517Z,6.50
2018-01-20T12:27:45.383Z,8.00
2018-01-20T12:29:24.157Z,9.50
2018-01-20T12:31:01.424Z,5.00
2018-01-20T12:32:38.534Z,1.75
2018-01-20T12:34:15.310Z,6.75
2018-01-20T12:35:52.535Z,5.00
2018-01-20T12:37:30.232Z,4.25
2018-01-20T12:39:07.590Z,3.25
2018-01-20T12:40:44.716Z,5.00
2018-01-20T12:42:22.039Z,3.25
2018-01-20T12:43:59.127Z,6.00
2018-01-20T12:45:35.986Z,4.00
2018-01-20T12:47:13.304Z,4.00
2018-01-20T12:48:51.700Z,8.50
2018-01-20T12:50:28.748Z,3.50
2018-01-20T12:52:06.095Z,7.50
2018-01-20T12:53:44.427Z,6.75
2018-01-20T12:55:23.436Z,5.75
2018-01-20T12:57:00.831Z,4.00
2018-01-20T12:58:39.728Z,10.00
2018-01-20T13:00:18.464Z,10.00
2018-01-20T13:01:57.311Z,4.25
2018-01-20T13:03:34.436Z,7.00
2018-01-20T13:05:11.543Z,5.50
2018-01-20T13:06:50.290Z,9.75
2018-01-20T13:08:29.277Z,5.00
2018-01-20T13:10:09.219Z,10.00
2018-01-20T13:11:48.347Z,8.00
2018-01-20T13:13:26.002Z,4.00
2018-01-20T13:15:04.250Z,9.00
2018-01-20T13:16:55.307Z,10.50
2018-01-20T13:18:33.014Z,10.50
2018-01-20T13:20:10.088Z,12.25
2018-01-20T13:21:50.809Z,7.00
2018-01-20T13:23:30.854Z,5.00
2018-01-20T13:25:11.235Z,6.00
2018-01-20T13:26:49.886Z,6.75
2018-01-20T13:28:29.873Z,5.25
2018-01-20T13:30:11.835Z,9.25
2018-01-20T13:31:52.452Z,8.00
2018-01-20T13:33:29.845Z,10.00
2018-01-20T13:35:08.045Z,3.00
2018-01-20T13:36:45.685Z,7.00
2018-01-20T13:38:23.267Z,6.25
2018-01-20T13:40:00.278Z,5.00
2018-01-20T13:41:39.554Z,12.75
2018-01-20T13:43:18.552Z,6.25
2018-01-20T13:44:57.669Z,6.00
2018-01-20T13:46:34.824Z,6.75
2018-01-20T13:48:12.931Z,3.25
2018-01-20T13:52:20.465Z,8.50
2018-01-20T13:53:59.636Z,13.00
2018-01-20T13:55:41.050Z,7.25
2018-01-20T13:57:19.290Z,9.25
2018-01-20T13:59:01.958Z,9.50
2018-01-20T14:00:39.400Z,9.25
2018-01-20T14:02:17.618Z,6.75
2018-01-20T14:03:59.479Z,9.00
2018-01-20T14:05:38.641Z,8.00
2018-01-20T14:07:18.875Z,8.00
2018-01-20T14:08:58.890Z,10.75
2018-01-20T14:10:38.838Z,6.50
2018-01-20T14:12:17.769Z,13.00
2018-01-20T14:13:57.176Z,5.75
2018-01-20T14:17:17.553Z,8.75
2018-01-20T14:18:54.253Z,12.25
2018-01-20T14:20:32.504Z,10.50
2018-01-20T14:22:11.131Z,6.50
2018-01-20T14:23:49.756Z,10.50
2018-01-20T14:26:55.873Z,9.00
2018-01-20T14:28:34.049Z,6.75
2018-01-20T14:30:12.299Z,13.00
2018-01-20T14:31:54.647Z,13.00
2018-01-20T14:33:34.070Z,11.00
2018-01-20T14:35:12.948Z,10.50
2018-01-20T14:36:52.683Z,8.00
2018-01-20T14:38:29.578Z,10.00
2018-01-20T14:40:06.164Z,7.75
2018-01-20T14:41:42.705Z,8.00
2018-01-20T14:43:19.707Z,10.00
2018-01-20T14:44:56.392Z,18.00
2018-01-20T14:46:35.216Z,10.50
2018-01-20T14:48:16.318Z,8.50
2018-01-20T14:49:55.891Z,9.75
2018-01-20T14:51:35.211Z,8.00
2018-01-20T14:53:15.417Z,10.50
2018-01-20T14:54:54.827Z,9.50
2018-01-20T14:58:00.925Z,11.00
2018-01-20T14:59:38.791Z,8.00
2018-01-20T15:01:17.127Z,11.25
2018-01-20T15:02:55.150Z,11.00
2018-01-20T15:04:34.607Z,9.75
2018-01-20T15:06:16.294Z,10.25
2018-01-20T15:07:57.397Z,9.25
2018-01-20T15:09:36.859Z,11.50
2018-01-20T15:11:18.731Z,8.25
2018-01-20T15:12:58.643Z,8.25
2018-01-20T15:14:37.699Z,8.25
2018-01-20T15:16:18.723Z,11.25
2018-01-20T15:17:56.982Z,12.00
2018-01-20T15:19:38.626Z,8.00
2018-01-20T15:21:18.636Z,8.75
2018-01-20T15:22:59.642Z,10.50
2018-01-20T15:24:40.988Z,11.00
2018-01-20T15:26:19.459Z,10.50
2018-01-20T15:28:01.597Z,7.75
2018-01-20T15:29:43.848Z,5.00
2018-01-20T15:31:25.032Z,7.00
2018-01-20T15:33:05.722Z,6.75
2018-01-20T15:34:46.399Z,7.00
2018-01-20T15:36:29.013Z,5.00
2018-01-20T15:38:09.246Z,5.00
2018-01-20T15:39:54.172Z,5.00
2018-01-20T15:41:38.217Z,5.00
2018-01-20T15:43:18.529Z,7.00
2018-01-20T15:44:59.959Z,7.00
2018-01-20T15:46:39.866Z,6.75
2018-01-20T15:48:21.019Z,5.00
2018-01-20T15:50:06.345Z,7.25
2018-01-20T15:51:47.323Z,10.00
2018-01-20T15:53:30.436Z,8.00
2018-01-20T15:55:13.340Z,8.00
2018-01-20T15:56:52.722Z,7.75
2018-01-20T15:58:33.814Z,9.50
2018-01-20T16:00:29.654Z,7.50
2018-01-20T16:02:11.104Z,8.00
2018-01-20T16:03:52.181Z,5.25
2018-01-20T16:05:35.856Z,6.75
2018-01-20T16:07:16.951Z,5.00
2018-01-20T16:08:57.898Z,9.00
2018-01-20T16:10:38.854Z,9.00
2018-01-20T16:12:18.743Z,8.00
2018-01-20T16:13:58.732Z,6.50
2018-01-20T16:15:40.349Z,9.50
2018-01-20T16:17:18.541Z,7.00
2018-01-20T16:18:56.491Z,6.50
2018-01-20T16:20:35.374Z,6.50
2018-01-20T16:22:15.139Z,5.50
2018-01-20T16:23:55.826Z,13.00
2018-01-20T16:25:33.858Z,8.00
2018-01-20T16:27:13.366Z,10.50
2018-01-20T16:28:54.251Z,12.75
2018-01-20T16:30:33.050Z,6.00
2018-01-20T16:32:10.992Z,15.75
2018-01-20T16:33:50.932Z,21.50
2018-01-20T16:35:28.821Z,35.25
2018-01-20T16:37:05.467Z,10.00
2018-01-20T16:38:43.481Z,12.00
2018-01-20T16:40:22.469Z,10.00
2018-01-20T16:41:59.529Z,10.00
2018-01-20T16:43:39.447Z,8.25
2018-01-20T16:45:18.308Z,11.75
2018-01-20T16:46:57.690Z,17.25
2018-01-20T16:48:36.892Z,15.00
2018-01-20T16:50:14.340Z,24.00
2018-01-20T16:51:52.990Z,15.25
2018-01-20T16:53:33.090Z,26.00
2018-01-20T16:55:20.841Z,27.00
2018-01-20T16:57:00.160Z,25.00
2018-01-20T16:58:40.670Z,20.50
2018-01-20T17:00:22.007Z,13.00
2018-01-20T17:02:02.439Z,8.25
2018-01-20T17:03:43.533Z,11.25
2018-01-20T17:05:22.363Z,6.50
2018-01-20T17:07:03.003Z,7.00
2018-01-20T17:08:44.279Z,12.00
2018-01-20T17:10:26.382Z,11.00
2018-01-20T17:12:05.361Z,6.50
2018-01-20T17:13:47.981Z,6.50
2018-01-20T17:15:30.651Z,9.00
2018-01-20T17:17:11.910Z,6.50
2018-01-20T17:18:50.731Z,6.25
2018-01-20T17:20:38.449Z,5.50
2018-01-20T17:22:20.389Z,2.00
2018-01-20T17:24:01.734Z,4.50
2018-01-20T17:25:43.430Z,2.50
2018-01-20T17:27:23.492Z,6.50
2018-01-20T17:29:03.232Z,8.50
2018-01-20T17:30:43.295Z,9.25
2018-01-20T17:32:21.628Z,10.00
2018-01-20T17:33:59.692Z,17.00
2018-01-20T17:35:40.766Z,9.25
2018-01-20T17:37:19.950Z,5.50
2018-01-20T17:39:00.541Z,10.00
2018-01-20T17:40:39.898Z,6.25
2018-01-20T17:42:20.010Z,6.75
2018-01-20T17:44:02.745Z,8.00
2018-01-20T17:45:45.482Z,10.00
2018-01-20T17:47:28.027Z,14.75
2018-01-20T17:49:08.229Z,9.00
2018-01-20T17:50:50.710Z,8.00
2018-01-20T17:52:32.009Z,7.50
2018-01-20T17:54:14.264Z,9.00
2018-01-20T17:55:56.978Z,6.25
2018-01-20T17:57:35.188Z,6.75
2018-01-20T17:59:14.982Z,13.75
2018-01-20T18:00:57.476Z,7.00
2018-01-20T18:02:36.727Z,7.00
2018-01-20T18:04:16.178Z,4.00
2018-01-20T18:05:58.368Z,9.00
2018-01-20T18:07:39.600Z,7.25
2018-01-20T18:09:21.235Z,8.75
2018-01-20T18:11:03.022Z,9.75
2018-01-20T18:12:43.368Z,7.25
2018-01-20T18:14:26.903Z,8.25
2018-01-20T18:16:09.079Z,13.00
2018-01-20T18:17:49.778Z,7.50
2018-01-20T18:19:33.492Z,8.00
2018-01-20T18:21:12.735Z,8.50
2018-01-20T18:22:51.864Z,10.25
2018-01-20T18:24:33.869Z,6.00
2018-01-20T18:26:15.553Z,7.50
2018-01-20T18:27:57.594Z,11.50
2018-01-20T18:29:41.264Z,11.00
2018-01-20T18:31:21.954Z,5.50
2018-01-20T18:33:03.010Z,10.75
2018-01-20T18:34:45.163Z,11.25
2018-01-20T18:36:29.488Z,9.00
2018-01-20T18:38:14.561Z,7.50
2018-01-20T18:39:57.758Z,8.00
2018-01-20T18:41:40.241Z,9.00
2018-01-20T18:43:22.562Z,10.00
2018-01-20T18:45:03.974Z,10.75
2018-01-20T18:46:47.840Z,11.75
2018-01-20T18:48:29.990Z,7.75
2018-01-20T18:50:12.527Z,8.50
2018-01-20T18:51:58.797Z,8.00
2018-01-20T18:53:45.457Z,7.00
2018-01-20T18:55:28.197Z,9.50
2018-01-20T18:57:11.350Z,9.50
2018-01-20T18:58:55.281Z,9.25
2018-01-20T19:00:36.269Z,7.25
2018-01-20T19:02:20.610Z,10.50
2018-01-20T19:04:10.802Z,10.50
2018-01-20T19:05:54.831Z,10.00
2018-01-20T19:07:38.236Z,9.50
2018-01-20T19:09:21.407Z,10.25
2018-01-20T19:11:05.785Z,10.00
2018-01-20T19:12:48.238Z,13.25
2018-01-20T19:14:31.101Z,10.00
2018-01-20T19:16:14.650Z,12.00
2018-01-20T19:18:02.645Z,10.75
2018-01-20T19:19:48.518Z,18.75
2018-01-20T19:21:34.490Z,10.75
2018-01-20T19:23:15.828Z,10.75
2018-01-20T19:25:01.299Z,13.50
2018-01-20T19:26:47.543Z,17.75
2018-01-20T19:28:32.044Z,14.50
2018-01-20T19:30:18.834Z,15.75
2018-01-20T19:32:00.141Z,14.00
2018-01-20T19:33:42.672Z,13.75
2018-01-20T19:35:24.928Z,16.25
2018-01-20T19:37:07.170Z,12.25
2018-01-20T19:38:55.670Z,12.75
2018-01-20T19:40:42.618Z,11.50
2018-01-20T19:42:26.824Z,10.50
2018-01-20T19:44:15.266Z,14.00
2018-01-20T19:45:59.000Z,10.50
2018-01-20T19:47:45.895Z,10.25
2018-01-20T19:51:01.167Z,15.50
2018-01-20T19:52:47.980Z,11.25
2018-01-20T19:54:32.231Z,13.00
2018-01-20T19:56:17.045Z,9.00
2018-01-20T19:58:01.394Z,13.75
2018-01-20T19:59:43.832Z,12.50
2018-01-20T20:01:29.226Z,11.25
2018-01-20T20:03:14.253Z,16.00
2018-01-20T20:04:59.424Z,12.00
2018-01-20T20:06:41.389Z,17.25
2018-01-20T20:08:24.465Z,13.25
2018-01-20T20:10:08.062Z,11.75
2018-01-20T20:11:52.416Z,12.75
2018-01-20T20:13:34.528Z,14.25
2018-01-20T20:15:19.103Z,16.75
2018-01-20T20:17:06.101Z,17.50
2018-01-20T20:18:51.424Z,13.75
2018-01-20T20:20:39.279Z,14.00
2018-01-20T20:22:26.587Z,17.75
2018-01-20T20:24:09.380Z,15.50
2018-01-20T20:26:01.607Z,13.75
2018-01-20T20:27:48.702Z,16.50
2018-01-20T20:29:34.905Z,13.25
2018-01-20T20:31:20.153Z,20.25
2018-01-20T20:33:03.650Z,23.75
2018-01-20T20:34:48.527Z,23.75
2018-01-20T20:36:36.200Z,22.75
2018-01-20T20:38:20.767Z,20.75
2018-01-20T20:40:04.173Z,24.75
2018-01-20T20:41:49.398Z,19.50
2018-01-20T20:43:38.724Z,21.00
2018-01-20T20:45:26.495Z,19.50
2018-01-20T20:47:07.971Z,18.50
2018-01-20T20:50:31.817Z,19.75
2018-01-20T20:52:20.711Z,18.00
2018-01-20T20:54:06.694Z,19.75
2018-01-20T20:55:54.831Z,18.50
2018-01-20T20:57:40.224Z,20.00
2018-01-20T20:59:24.599Z,15.25
2018-01-20T21:01:13.207Z,14.25
2018-01-20T21:02:59.848Z,17.25
2018-01-20T21:04:48.024Z,16.75
2018-01-20T21:06:41.824Z,15.00
2018-01-20T21:08:28.429Z,19.50
2018-01-20T21:10:14.661Z,19.00
2018-01-20T21:12:00.150Z,16.50
2018-01-20T21:13:46.890Z,19.00
2018-01-20T21:15:33.233Z,22.75
2018-01-20T21:17:16.685Z,22.00
2018-01-20T21:19:03.086Z,21.25
2018-01-20T21:20:46.241Z,19.50
2018-01-20T21:22:26.525Z,21.00
2018-01-20T21:24:10.464Z,25.50
2018-01-20T21:25:52.492Z,30.25
2018-01-20T21:27:34.634Z,24.25
2018-01-20T21:29:15.989Z,19.50
2018-01-20T21:31:03.492Z,28.75
2018-01-20T21:32:51.572Z,28.25
2018-01-20T21:34:30.540Z,26.75
2018-01-20T21:36:11.938Z,24.75
2018-01-20T21:37:49.220Z,23.50
2018-01-20T21:39:28.441Z,21.25
2018-01-20T21:41:13.131Z,22.75
2018-01-20T21:42:58.993Z,22.00
2018-01-20T21:44:38.413Z,20.50
2018-01-20T21:46:16.895Z,24.75
2018-01-20T21:47:54.405Z,25.25
2018-01-20T21:49:35.678Z,26.75
2018-01-20T21:52:44.666Z,25.00
2018-01-20T21:54:23.944Z,26.50
2018-01-20T21:56:04.116Z,29.25
2018-01-20T21:57:42.756Z,25.75
2018-01-20T21:59:20.659Z,21.75
2018-01-20T22:00:59.397Z,25.00
2018-01-20T22:02:37.073Z,19.25
2018-01-20T22:04:15.291Z,23.25
2018-01-20T22:05:56.381Z,25.50
2018-01-20T22:07:35.096Z,23.50
2018-01-20T22:09:13.824Z,27.25
2018-01-20T22:10:51.437Z,22.25
2018-01-20T22:12:28.470Z,27.00
2018-01-20T22:14:05.281Z,19.00